Time;durP1;ratioP1;P1;durP2;ratioP2;P2;SDS_P1;SDS_P2;PMS_P1;PMS_P2;Temp;Humidity;BMP_temperature;BMP_pressure;BME280_temperature;BME280_humidity;BME280_pressure;Samples;Min_cycle;Max_cycle;Signal;HPM_P1;HPM_P2
2023/07/11 00:02:22;;;;;;;5.43;5.00;;;21.20;99.90;;;;;;5044660;28;20213;-61
2023/07/11 00:04:48;;;;;;;6.17;5.27;;;21.20;99.90;;;;;;5037019;28;20194;-60
2023/07/11 00:07:13;;;;;;;6.47;5.03;;;21.10;99.90;;;;;;5035989;28;20233;-60
2023/07/11 00:09:39;;;;;;;5.77;4.27;;;21.10;99.90;;;;;;5032702;28;20213;-60
2023/07/11 00:12:05;;;;;;;5.67;5.00;;;21.00;99.90;;;;;;5044651;28;20253;-60
2023/07/11 00:14:32;;;;;;;6.03;5.00;;;21.00;99.90;;;;;;5034624;28;20260;-60
2023/07/11 00:16:57;;;;;;;5.53;4.80;;;21.00;99.90;;;;;;5051774;28;20817;-60
2023/07/11 00:19:23;;;;;;;5.00;4.60;;;21.00;99.90;;;;;;5039518;28;20212;-60
2023/07/11 00:21:48;;;;;;;6.47;5.03;;;21.00;99.90;;;;;;5047602;28;20205;-59
2023/07/11 00:24:14;;;;;;;6.47;5.23;;;21.00;99.90;;;;;;5046771;28;20214;-59
2023/07/11 00:26:39;;;;;;;9.30;4.90;;;20.90;99.90;;;;;;5043096;28;20235;-59
2023/07/11 00:29:34;;;;;;;7.87;4.80;;;20.80;99.90;;;;;;5011030;28;20841;-60
2023/07/11 00:32:00;;;;;;;4.77;4.37;;;20.80;99.90;;;;;;5011916;28;20237;-60
2023/07/11 00:34:25;;;;;;;5.50;4.90;;;20.70;99.90;;;;;;5033428;28;20210;-59
2023/07/11 00:36:51;;;;;;;6.03;4.73;;;20.60;99.90;;;;;;5040706;28;20238;-58
2023/07/11 00:39:19;;;;;;;5.53;5.03;;;20.70;99.90;;;;;;5046883;28;20213;-58
2023/07/11 00:41:45;;;;;;;6.60;4.83;;;20.70;99.90;;;;;;5019993;28;20209;-58
2023/07/11 00:44:15;;;;;;;6.40;5.83;;;20.70;99.90;;;;;;5040213;28;20271;-59
2023/07/11 00:46:42;;;;;;;7.17;5.50;;;20.70;99.90;;;;;;5039550;28;20217;-58
2023/07/11 00:49:10;;;;;;;7.23;5.23;;;20.60;99.90;;;;;;5042260;28;20873;-57
2023/07/11 00:51:40;;;;;;;4.93;4.50;;;20.50;99.90;;;;;;5023266;28;20300;-57
2023/07/11 00:54:08;;;;;;;7.75;4.68;;;20.50;99.90;;;;;;5035487;28;20202;-58
2023/07/11 00:56:39;;;;;;;5.77;5.13;;;20.50;99.90;;;;;;5038680;28;20207;-58
2023/07/11 00:59:05;;;;;;;4.87;4.33;;;20.40;99.90;;;;;;5038878;28;20346;-57
2023/07/11 01:01:31;;;;;;;5.33;4.83;;;20.50;99.90;;;;;;5040623;28;20210;-58
2023/07/11 01:03:57;;;;;;;6.87;4.87;;;20.40;99.90;;;;;;5040557;28;20194;-58
2023/07/11 01:06:26;;;;;;;5.47;4.97;;;20.40;99.90;;;;;;5037707;28;20233;-59
2023/07/11 01:08:54;;;;;;;4.97;4.53;;;20.40;99.90;;;;;;5028623;28;20215;-58
2023/07/11 01:11:23;;;;;;;5.20;4.70;;;20.30;99.90;;;;;;5029241;28;20218;-59
2023/07/11 01:13:49;;;;;;;5.23;4.53;;;20.30;99.90;;;;;;5026659;28;20203;-59
2023/07/11 01:16:14;;;;;;;5.47;4.53;;;20.30;99.90;;;;;;5038113;28;20218;-58
2023/07/11 01:18:40;;;;;;;6.53;5.23;;;20.30;99.90;;;;;;5014619;28;20326;-58
2023/07/11 01:21:06;;;;;;;6.47;5.40;;;20.20;99.90;;;;;;5043118;28;20201;-58
2023/07/11 01:23:33;;;;;;;6.77;5.20;;;20.20;99.90;;;;;;5045905;28;20202;-58
2023/07/11 01:26:04;;;;;;;5.17;4.77;;;20.20;99.90;;;;;;5032131;28;20687;-59
2023/07/11 01:28:30;;;;;;;5.70;5.17;;;20.20;99.90;;;;;;5036239;28;20260;-58
2023/07/11 01:30:55;;;;;;;6.77;5.10;;;20.20;99.90;;;;;;5040399;28;20215;-58
2023/07/11 01:33:24;;;;;;;5.63;5.13;;;20.10;99.90;;;;;;5041426;28;20208;-58
2023/07/11 01:35:54;;;;;;;6.37;5.53;;;20.10;99.90;;;;;;5034472;28;21060;-58
2023/07/11 01:38:21;;;;;;;6.47;5.80;;;20.00;99.90;;;;;;5035643;28;20298;-58
2023/07/11 01:40:48;;;;;;;5.87;5.33;;;20.00;99.90;;;;;;5039336;28;20759;-59
2023/07/11 01:43:16;;;;;;;7.07;6.03;;;20.00;99.90;;;;;;5029537;28;20294;-59
2023/07/11 01:45:41;;;;;;;5.80;5.30;;;20.00;99.90;;;;;;5036669;28;20230;-59
2023/07/11 01:48:07;;;;;;;7.23;5.50;;;19.90;99.90;;;;;;5036664;28;20218;-59
2023/07/11 01:50:33;;;;;;;6.83;5.33;;;19.90;99.90;;;;;;5028351;28;20254;-59
2023/07/11 01:52:58;;;;;;;11.03;6.63;;;19.90;99.90;;;;;;5030022;28;20289;-59
2023/07/11 01:55:25;;;;;;;5.40;5.00;;;19.90;99.90;;;;;;5039812;28;20296;-58
2023/07/11 01:57:50;;;;;;;5.57;5.17;;;19.80;99.90;;;;;;5041979;28;20288;-59
2023/07/11 02:00:16;;;;;;;6.47;5.03;;;19.80;99.90;;;;;;5035656;28;20293;-59
2023/07/11 02:02:41;;;;;;;6.33;5.00;;;19.80;99.90;;;;;;5045119;28;20198;-59
2023/07/11 02:05:07;;;;;;;5.27;4.77;;;19.80;99.90;;;;;;5040418;28;20407;-58
2023/07/11 02:07:32;;;;;;;8.93;5.30;;;19.70;99.90;;;;;;5038671;28;20295;-60
2023/07/11 02:09:58;;;;;;;8.20;4.93;;;19.60;99.90;;;;;;5033230;28;20188;-60
2023/07/11 02:12:23;;;;;;;5.93;5.33;;;19.60;99.90;;;;;;5035551;28;21230;-61
2023/07/11 02:14:49;;;;;;;6.07;5.13;;;19.50;99.90;;;;;;5042262;28;20189;-60
2023/07/11 02:17:14;;;;;;;5.80;5.27;;;19.50;99.90;;;;;;5032364;28;20841;-58
2023/07/11 02:19:40;;;;;;;5.90;5.40;;;19.50;99.90;;;;;;5028644;28;20286;-60
2023/07/11 02:22:07;;;;;;;5.10;4.70;;;19.40;99.90;;;;;;5036247;28;20293;-60
2023/07/11 02:24:32;;;;;;;6.43;4.97;;;19.40;99.90;;;;;;5045436;28;20618;-61
2023/07/11 02:26:58;;;;;;;7.20;4.87;;;19.40;99.90;;;;;;5031447;28;20213;-60
2023/07/11 02:29:24;;;;;;;6.27;5.67;;;19.40;99.90;;;;;;5033596;28;20195;-62
2023/07/11 02:31:49;;;;;;;4.83;4.43;;;19.40;99.90;;;;;;5039821;28;20217;-61
2023/07/11 02:34:15;;;;;;;5.63;5.23;;;19.50;99.90;;;;;;5031229;28;20197;-77
2023/07/11 02:36:40;;;;;;;5.23;4.83;;;19.50;99.90;;;;;;5029209;28;20202;-60
2023/07/11 02:39:06;;;;;;;5.30;4.80;;;19.40;99.90;;;;;;5027501;28;20285;-59
2023/07/11 02:41:31;;;;;;;5.90;5.40;;;19.40;99.90;;;;;;5036729;28;20926;-60
2023/07/11 02:43:57;;;;;;;6.13;5.60;;;19.30;99.90;;;;;;5043563;28;20331;-59
2023/07/11 02:46:23;;;;;;;11.50;5.47;;;19.20;99.90;;;;;;5036031;28;20202;-60
2023/07/11 02:48:49;;;;;;;7.77;5.80;;;19.20;99.90;;;;;;5041275;28;20201;-59
2023/07/11 02:51:14;;;;;;;6.13;5.63;;;19.20;99.90;;;;;;5034161;28;20236;-59
2023/07/11 02:53:40;;;;;;;6.27;5.67;;;19.20;99.90;;;;;;5042063;28;20201;-59
2023/07/11 02:56:05;;;;;;;6.03;5.53;;;19.30;99.90;;;;;;5026403;28;20338;-59
2023/07/11 02:58:31;;;;;;;6.37;5.77;;;19.30;99.90;;;;;;5036957;28;20560;-60
2023/07/11 03:00:59;;;;;;;6.67;6.07;;;19.20;99.90;;;;;;5033554;28;20308;-59
2023/07/11 03:03:25;;;;;;;6.67;6.10;;;19.10;99.90;;;;;;5033384;28;20284;-58
2023/07/11 03:05:51;;;;;;;6.07;5.60;;;19.10;99.90;;;;;;5042926;28;20687;-60
2023/07/11 03:08:17;;;;;;;7.10;6.40;;;19.10;99.90;;;;;;5030706;28;20998;-59
2023/07/11 03:10:43;;;;;;;6.63;6.00;;;19.00;99.90;;;;;;5038764;28;20218;-60
2023/07/11 03:13:09;;;;;;;8.50;6.40;;;19.00;99.90;;;;;;5043822;28;20212;-57
2023/07/11 03:15:35;;;;;;;6.30;5.70;;;19.00;99.90;;;;;;5033080;28;20194;-57
2023/07/11 03:18:01;;;;;;;6.57;5.53;;;19.00;99.90;;;;;;5034049;28;20197;-57
2023/07/11 03:20:26;;;;;;;5.87;5.37;;;19.00;99.90;;;;;;5045349;28;20211;-60
2023/07/11 03:22:52;;;;;;;6.47;5.87;;;19.00;99.90;;;;;;5044345;28;20197;-59
2023/07/11 03:25:18;;;;;;;6.03;5.53;;;19.00;99.90;;;;;;5040806;28;20292;-59
2023/07/11 03:27:43;;;;;;;8.17;6.57;;;19.00;99.90;;;;;;5043296;28;20198;-59
2023/07/11 03:30:09;;;;;;;6.13;5.23;;;19.00;99.90;;;;;;5033938;28;20198;-60
2023/07/11 03:32:35;;;;;;;7.30;6.20;;;19.00;99.90;;;;;;5042533;28;20319;-60
2023/07/11 03:35:00;;;;;;;10.60;6.70;;;19.00;99.90;;;;;;5038588;28;20688;-60
2023/07/11 03:37:26;;;;;;;7.17;5.90;;;19.00;99.90;;;;;;5045045;28;20208;-61
2023/07/11 03:39:51;;;;;;;7.37;6.40;;;19.00;99.90;;;;;;5036574;28;20671;-60
2023/07/11 03:42:17;;;;;;;6.43;5.83;;;19.00;99.90;;;;;;5041523;28;20206;-60
2023/07/11 03:44:43;;;;;;;8.40;6.87;;;19.00;99.90;;;;;;5007316;28;20229;-62
2023/07/11 03:47:08;;;;;;;6.77;6.03;;;19.00;99.90;;;;;;5047207;28;20208;-60
2023/07/11 03:49:34;;;;;;;7.13;6.43;;;19.00;99.90;;;;;;5041933;28;20299;-60
2023/07/11 03:52:00;;;;;;;7.37;6.57;;;19.00;99.90;;;;;;5033713;28;20224;-58
2023/07/11 03:54:25;;;;;;;9.57;7.60;;;19.10;99.90;;;;;;5031389;28;20203;-58
2023/07/11 03:56:51;;;;;;;9.03;7.50;;;19.10;99.90;;;;;;5040882;28;20727;-58
2023/07/11 03:59:17;;;;;;;8.33;7.17;;;19.10;99.90;;;;;;5036272;28;20259;-58
2023/07/11 04:01:43;;;;;;;12.60;8.37;;;19.10;99.90;;;;;;5036576;28;20198;-58
2023/07/11 04:04:08;;;;;;;9.47;7.43;;;19.10;99.90;;;;;;5041267;28;20238;-57
2023/07/11 04:06:34;;;;;;;9.33;7.97;;;19.10;99.90;;;;;;5042534;28;20226;-57
2023/07/11 04:08:59;;;;;;;11.00;7.60;;;19.20;99.90;;;;;;5046753;28;20664;-58
2023/07/11 04:11:25;;;;;;;7.73;6.90;;;19.20;99.90;;;;;;5041558;28;20244;-60
2023/07/11 04:13:50;;;;;;;9.87;7.67;;;19.20;99.90;;;;;;5029899;28;20189;-66
2023/07/11 04:16:16;;;;;;;8.50;7.57;;;19.20;99.90;;;;;;5044838;28;20273;-66
2023/07/11 04:18:41;;;;;;;8.47;6.63;;;19.30;99.90;;;;;;5042272;28;20196;-59
2023/07/11 04:21:07;;;;;;;10.47;8.70;;;19.30;99.90;;;;;;5039338;28;20353;-60
2023/07/11 04:23:32;;;;;;;10.70;8.30;;;19.30;99.90;;;;;;5038739;28;20738;-58
2023/07/11 04:25:58;;;;;;;8.50;7.17;;;19.30;99.90;;;;;;5040853;28;20245;-58
2023/07/11 04:28:23;;;;;;;8.73;6.83;;;19.40;99.90;;;;;;5043914;28;20205;-58
2023/07/11 04:30:49;;;;;;;7.80;6.30;;;19.40;99.90;;;;;;5045041;28;20224;-58
2023/07/11 04:33:14;;;;;;;9.67;6.97;;;19.50;99.90;;;;;;5043764;28;20628;-58
2023/07/11 04:35:40;;;;;;;9.70;7.13;;;19.50;99.90;;;;;;5046224;28;20210;-58
2023/07/11 04:38:05;;;;;;;16.30;8.10;;;19.50;99.90;;;;;;5028095;28;20252;-58
2023/07/11 04:40:31;;;;;;;9.93;8.10;;;19.60;99.90;;;;;;5042098;28;20209;-58
2023/07/11 04:42:58;;;;;;;7.23;6.53;;;19.60;99.90;;;;;;5045916;28;20208;-58
2023/07/11 04:45:24;;;;;;;9.93;7.43;;;19.70;99.90;;;;;;5046487;28;20924;-58
2023/07/11 04:47:49;;;;;;;8.83;7.07;;;19.70;99.90;;;;;;5039439;28;20212;-59
2023/07/11 04:50:15;;;;;;;5.67;4.63;;;19.70;99.90;;;;;;5047015;28;20193;-58
2023/07/11 04:52:42;;;;;;;6.47;4.70;;;19.80;99.90;;;;;;5034428;28;20300;-58
2023/07/11 04:55:08;;;;;;;13.10;5.23;;;19.90;99.90;;;;;;5046271;28;20235;-58
2023/07/11 04:57:34;;;;;;;7.10;5.10;;;20.00;99.90;;;;;;5039764;28;20196;-58
2023/07/11 04:59:59;;;;;;;7.77;5.17;;;20.10;99.90;;;;;;5043407;28;20209;-58
2023/07/11 05:02:25;;;;;;;5.90;4.23;;;20.20;99.90;;;;;;5047015;28;20211;-58
2023/07/11 05:04:50;;;;;;;6.73;3.80;;;20.30;99.90;;;;;;5042698;28;20189;-58
2023/07/11 05:07:16;;;;;;;6.17;4.23;;;20.30;99.90;;;;;;5029463;28;20850;-58
2023/07/11 05:09:41;;;;;;;7.37;4.47;;;20.30;99.90;;;;;;5034484;28;20927;-59
2023/07/11 05:12:07;;;;;;;4.30;3.17;;;20.30;99.90;;;;;;5022220;28;20625;-57
2023/07/11 05:14:33;;;;;;;4.43;2.87;;;20.40;99.90;;;;;;5020626;28;20226;-58
2023/07/11 05:16:58;;;;;;;4.73;2.83;;;20.40;99.90;;;;;;5018987;28;20210;-58
2023/07/11 05:19:24;;;;;;;2.87;2.53;;;20.30;99.90;;;;;;5025940;28;20225;-58
2023/07/11 05:21:49;;;;;;;5.77;4.10;;;20.40;99.90;;;;;;5030324;28;20596;-58
2023/07/11 05:24:15;;;;;;;9.43;4.23;;;20.50;99.90;;;;;;5029465;28;20220;-57
2023/07/11 05:26:40;;;;;;;4.63;3.57;;;20.80;99.90;;;;;;5025716;28;20225;-58
2023/07/11 05:29:06;;;;;;;6.47;3.67;;;20.80;99.90;;;;;;5028341;28;20213;-58
2023/07/11 05:31:32;;;;;;;6.43;3.57;;;20.90;99.90;;;;;;5012046;28;20590;-58
2023/07/11 05:33:58;;;;;;;4.27;3.90;;;20.90;99.90;;;;;;5029387;28;20802;-58
2023/07/11 05:36:32;;;;;;;7.63;4.17;;;21.00;99.90;;;;;;5028882;28;20225;-59
2023/07/11 05:39:06;;;;;;;4.50;4.07;;;21.10;99.90;;;;;;5031634;28;20225;-58
2023/07/11 05:41:34;;;;;;;8.23;4.60;;;21.10;99.90;;;;;;5028810;28;20220;-58
2023/07/11 05:44:01;;;;;;;4.70;4.10;;;21.10;99.90;;;;;;5030175;28;21094;-58
2023/07/11 05:46:27;;;;;;;4.50;4.17;;;21.20;99.90;;;;;;5029531;28;20270;-59
2023/07/11 05:48:54;;;;;;;5.20;3.87;;;21.30;99.90;;;;;;5033605;28;20616;-60
2023/07/11 05:51:20;;;;;;;4.40;3.50;;;21.40;99.90;;;;;;5020960;28;20215;-60
2023/07/11 05:53:46;;;;;;;5.67;4.30;;;21.40;99.90;;;;;;5026983;28;20742;-59
2023/07/11 05:56:13;;;;;;;8.07;4.00;;;21.40;99.90;;;;;;5031270;28;20248;-60
2023/07/11 05:58:39;;;;;;;3.80;3.50;;;21.40;99.90;;;;;;5022956;28;20195;-58
2023/07/11 06:01:04;;;;;;;4.70;3.97;;;21.50;99.90;;;;;;5022565;28;20501;-59
2023/07/11 06:03:31;;;;;;;5.00;4.13;;;21.60;99.90;;;;;;5028208;28;20213;-59
2023/07/11 06:06:01;;;;;;;4.57;3.70;;;21.50;99.90;;;;;;5030597;28;20238;-58
2023/07/11 06:08:28;;;;;;;5.03;4.57;;;21.60;99.90;;;;;;5036966;28;20681;-59
2023/07/11 06:10:59;;;;;;;4.27;3.90;;;21.70;99.90;;;;;;5033149;28;20230;-59
2023/07/11 06:13:26;;;;;;;7.13;4.27;;;21.80;99.90;;;;;;5033699;28;20234;-59
2023/07/11 06:16:06;;;;;;;4.70;4.30;;;21.80;99.90;;;;;;5041553;28;20270;-59
2023/07/11 06:18:36;;;;;;;4.37;3.97;;;21.80;99.90;;;;;;5035133;28;20194;-59
2023/07/11 06:21:02;;;;;;;4.63;4.23;;;21.80;99.90;;;;;;5034101;28;20194;-58
2023/07/11 06:23:28;;;;;;;4.20;3.47;;;21.80;99.90;;;;;;5032167;28;20236;-58
2023/07/11 06:25:53;;;;;;;3.57;3.27;;;21.80;99.90;;;;;;5035694;28;20640;-59
2023/07/11 06:28:19;;;;;;;3.17;2.90;;;21.80;99.90;;;;;;5029149;28;20230;-59
2023/07/11 06:30:44;;;;;;;4.77;3.00;;;21.90;99.90;;;;;;5033755;28;20246;-64
2023/07/11 06:33:10;;;;;;;4.10;3.10;;;22.10;99.90;;;;;;5033208;28;20306;-63
2023/07/11 06:35:40;;;;;;;3.77;2.97;;;22.10;99.90;;;;;;5037808;28;20708;-63
2023/07/11 06:38:09;;;;;;;4.13;2.80;;;22.20;99.90;;;;;;5042759;28;20201;-63
2023/07/11 06:40:35;;;;;;;2.67;2.47;;;22.30;99.90;;;;;;5033255;28;20203;-63
2023/07/11 06:43:00;;;;;;;3.87;3.10;;;22.40;99.90;;;;;;5029970;28;20211;-59
2023/07/11 06:45:26;;;;;;;3.33;2.15;;;22.40;99.90;;;;;;5041574;28;20221;-59
2023/07/11 06:47:52;;;;;;;4.27;2.80;;;22.40;99.90;;;;;;5039897;28;20277;-58
2023/07/11 06:50:18;;;;;;;3.42;2.95;;;22.30;99.90;;;;;;5038764;28;20217;-58
2023/07/11 06:52:43;;;;;;;3.85;2.72;;;22.50;99.90;;;;;;5037403;28;20756;-62
2023/07/11 06:55:09;;;;;;;4.27;2.73;;;22.40;99.90;;;;;;5032629;28;20290;-62
2023/07/11 06:57:35;;;;;;;4.30;3.20;;;22.40;99.90;;;;;;5043638;28;20213;-60
2023/07/11 07:00:00;;;;;;;5.17;3.10;;;22.50;99.90;;;;;;5045005;28;20202;-60
2023/07/11 07:02:26;;;;;;;9.93;3.10;;;22.60;99.90;;;;;;5044554;28;20213;-59
2023/07/11 07:04:52;;;;;;;5.57;3.25;;;22.60;99.90;;;;;;5038232;28;20252;-60
2023/07/11 07:07:19;;;;;;;3.58;2.28;;;22.60;99.90;;;;;;5039221;28;20719;-60
2023/07/11 07:09:44;;;;;;;3.70;2.87;;;22.70;99.90;;;;;;5045218;28;20203;-61
2023/07/11 07:12:10;;;;;;;2.60;2.40;;;22.70;99.90;;;;;;5037096;28;20210;-60
2023/07/11 07:14:35;;;;;;;4.75;2.58;;;22.60;99.90;;;;;;5042645;28;20186;-64
2023/07/11 07:17:01;;;;;;;2.95;2.63;;;22.70;99.90;;;;;;5044855;28;20239;-61
2023/07/11 07:19:26;;;;;;;2.85;2.42;;;22.70;99.90;;;;;;5033410;28;20888;-66
2023/07/11 07:21:52;;;;;;;3.10;2.73;;;22.90;99.90;;;;;;5034607;28;20199;-67
2023/07/11 07:24:17;;;;;;;4.60;2.38;;;22.90;99.90;;;;;;5016800;28;20211;-67
2023/07/11 07:26:43;;;;;;;4.53;2.63;;;22.90;99.90;;;;;;5043796;28;20186;-67
2023/07/11 07:29:08;;;;;;;2.50;2.30;;;22.90;99.90;;;;;;5037674;28;20251;-67
2023/07/11 07:31:34;;;;;;;3.75;2.47;;;23.00;99.90;;;;;;5024518;28;20218;-68
2023/07/11 07:33:59;;;;;;;5.05;2.38;;;23.10;99.90;;;;;;5038306;28;20229;-67
2023/07/11 07:36:25;;;;;;;3.40;2.57;;;23.20;99.90;;;;;;5045049;28;20294;-65
2023/07/11 07:38:50;;;;;;;2.45;2.10;;;23.20;99.90;;;;;;5043609;28;20194;-66
2023/07/11 07:41:16;;;;;;;4.57;2.72;;;23.20;99.90;;;;;;5040085;28;20249;-70
2023/07/11 07:43:43;;;;;;;15.77;5.55;;;23.30;99.90;;;;;;5041151;28;20203;-66
2023/07/11 07:46:14;;;;;;;3.03;2.70;;;23.30;99.90;;;;;;5038241;28;20210;-79
2023/07/11 07:48:41;;;;;;;3.40;2.47;;;22.50;99.90;;;;;;5044323;28;20202;-66
2023/07/11 07:51:09;;;;;;;3.63;2.42;;;21.90;99.90;;;;;;5042435;28;20224;-66
2023/07/11 07:53:35;;;;;;;3.23;2.47;;;21.40;99.90;;;;;;5039692;28;20202;-67
2023/07/11 07:56:10;;;;;;;2.57;2.37;;;20.90;99.90;;;;;;5041525;28;20566;-68
2023/07/11 07:58:36;;;;;;;6.27;2.37;;;20.90;99.90;;;;;;5043835;28;20209;-68
2023/07/11 08:01:03;;;;;;;7.10;2.73;;;20.70;99.90;;;;;;5047823;28;20672;-68
2023/07/11 08:03:29;;;;;;;3.50;2.10;;;20.70;99.90;;;;;;5046796;28;20206;-67
2023/07/11 08:05:56;;;;;;;2.83;2.30;;;20.80;99.90;;;;;;5041541;28;20314;-68
2023/07/11 08:08:22;;;;;;;4.90;2.10;;;20.30;99.90;;;;;;5046034;28;20198;-68
2023/07/11 08:10:48;;;;;;;3.00;2.20;;;20.40;99.90;;;;;;5045572;28;20848;-68
2023/07/11 08:13:13;;;;;;;3.20;2.23;;;20.60;99.90;;;;;;5047588;28;20878;-67
2023/07/11 08:15:42;;;;;;;4.30;2.70;;;20.60;99.90;;;;;;5044529;28;20709;-68
2023/07/11 08:18:07;;;;;;;2.47;2.00;;;20.60;99.90;;;;;;5043156;28;20670;-68
2023/07/11 08:20:33;;;;;;;5.80;2.40;;;20.70;99.90;;;;;;5048494;28;20194;-71
2023/07/11 08:22:58;;;;;;;3.43;2.60;;;21.10;99.90;;;;;;5039113;28;20195;-66
2023/07/11 08:25:24;;;;;;;3.05;2.03;;;21.00;99.90;;;;;;5038261;28;20187;-69
2023/07/11 08:27:50;;;;;;;3.10;2.33;;;20.40;99.90;;;;;;5031503;28;20317;-69
2023/07/11 08:30:16;;;;;;;2.87;2.17;;;20.50;99.90;;;;;;5044265;28;20294;-69
2023/07/11 08:32:41;;;;;;;2.50;2.28;;;21.00;99.90;;;;;;5042616;28;20362;-68
2023/07/11 08:35:07;;;;;;;5.83;1.80;;;21.50;99.90;;;;;;5042240;28;20203;-68
2023/07/11 08:37:33;;;;;;;4.27;2.53;;;21.60;99.90;;;;;;5042555;28;20672;-69
2023/07/11 08:39:59;;;;;;;3.10;2.17;;;21.70;99.90;;;;;;5043878;28;20186;-69
2023/07/11 08:42:41;;;;;;;2.05;1.67;;;21.70;99.90;;;;;;5038853;28;20198;-69
2023/07/11 08:45:30;;;;;;;4.07;1.83;;;22.10;99.90;;;;;;5042536;28;20664;-69
2023/07/11 08:48:15;;;;;;;4.77;2.00;;;22.00;99.90;;;;;;5035368;28;20202;-69
2023/07/11 08:51:03;;;;;;;3.10;1.65;;;21.90;99.60;;;;;;5029354;28;20256;-67
2023/07/11 08:53:42;;;;;;;2.30;1.80;;;22.00;98.00;;;;;;5041356;28;20226;-67
2023/07/11 08:56:36;;;;;;;2.78;1.58;;;22.50;97.50;;;;;;5046447;28;20202;-69
2023/07/11 08:59:06;;;;;;;4.18;2.10;;;23.00;95.60;;;;;;5046998;28;20199;-69
2023/07/11 09:01:59;;;;;;;1.70;1.42;;;22.70;97.00;;;;;;5039634;28;20280;-75
2023/07/11 09:04:26;;;;;;;4.75;1.70;;;22.50;96.30;;;;;;5032748;28;21221;-69
2023/07/11 09:06:55;;;;;;;3.78;1.52;;;22.40;99.90;;;;;;5047076;28;20583;-69
2023/07/11 09:09:22;;;;;;;4.30;1.98;;;21.70;99.90;;;;;;5046112;28;20331;-68
2023/07/11 09:12:18;;;;;;;3.17;1.48;;;22.20;97.30;;;;;;5044411;28;20210;-66
2023/07/11 09:15:13;;;;;;;3.05;1.77;;;22.80;96.90;;;;;;5043174;28;20332;-68
2023/07/11 09:17:52;;;;;;;4.30;1.97;;;23.10;98.10;;;;;;5039975;28;20198;-69
2023/07/11 09:20:18;;;;;;;4.88;1.95;;;23.20;95.60;;;;;;5037503;28;20204;-69
2023/07/11 09:23:13;;;;;;;3.13;1.67;;;23.30;95.40;;;;;;5036311;28;20192;-70
2023/07/11 09:25:42;;;;;;;5.10;1.83;;;23.00;96.40;;;;;;5028398;28;20191;-68
2023/07/11 09:28:17;;;;;;;4.47;1.95;;;23.60;94.80;;;;;;5032505;28;20205;-68
2023/07/11 09:30:58;;;;;;;2.30;2.03;;;23.60;96.70;;;;;;5028294;28;20202;-70
2023/07/11 09:33:29;;;;;;;4.07;1.60;;;23.60;97.10;;;;;;5033463;28;20195;-66
2023/07/11 09:35:56;;;;;;;2.83;1.63;;;23.70;94.70;;;;;;5046819;28;20207;-71
2023/07/11 09:42:04;;;;;;;4.28;2.05;;;23.80;95.90;;;;;;5034531;28;20238;-68
2023/07/11 09:44:29;;;;;;;4.43;1.80;;;24.10;94.50;;;;;;5038804;28;20206;-71
2023/07/11 09:46:55;;;;;;;3.20;2.00;;;24.40;93.90;;;;;;5039719;28;20745;-73
2023/07/11 09:49:28;;;;;;;10.10;2.80;;;24.30;94.80;;;;;;5042071;28;20872;-69
2023/07/11 10:07:32;;;;;;;2.17;1.85;;;24.60;92.80;;;;;;4923053;29;20997;-74
2023/07/11 10:13:22;;;;;;;3.70;2.22;;;24.90;93.20;;;;;;4932116;28;20225;-69
2023/07/11 10:15:51;;;;;;;3.80;2.30;;;24.90;93.20;;;;;;4932558;28;20204;-76
2023/07/11 10:18:27;;;;;;;2.92;2.42;;;24.80;93.80;;;;;;4931028;28;20246;-71
2023/07/11 10:21:00;;;;;;;3.22;1.90;;;25.00;93.00;;;;;;4928558;28;20595;-72
2023/07/11 10:23:26;;;;;;;3.58;2.40;;;24.90;92.80;;;;;;4930895;28;20318;-82
2023/07/11 10:25:54;;;;;;;4.80;2.20;;;25.20;91.80;;;;;;4934705;28;20636;-69
2023/07/11 10:28:20;;;;;;;2.05;1.73;;;25.40;91.10;;;;;;4946923;28;20609;-69
2023/07/11 10:30:45;;;;;;;2.42;2.05;;;25.40;91.40;;;;;;4999785;28;20207;-68
2023/07/11 10:33:24;;;;;;;2.22;1.98;;;25.40;91.80;;;;;;4934477;28;20198;-70
2023/07/11 10:35:55;;;;;;;2.83;1.92;;;25.50;91.60;;;;;;4940834;28;20302;-68
2023/07/11 10:38:27;;;;;;;2.75;2.10;;;25.50;92.00;;;;;;4941105;28;20244;-72
2023/07/11 10:41:00;;;;;;;2.30;2.10;;;25.50;90.80;;;;;;4934494;28;20219;-69
2023/07/11 10:43:32;;;;;;;4.25;2.45;;;25.40;91.00;;;;;;4946147;28;20215;-72
2023/07/11 10:46:04;;;;;;;3.20;2.50;;;25.40;90.10;;;;;;4943841;28;20314;-72
2023/07/11 10:48:32;;;;;;;3.05;2.13;;;25.50;90.30;;;;;;4939098;28;20711;-73
2023/07/11 10:51:06;;;;;;;3.33;1.85;;;25.60;90.60;;;;;;4941147;28;20687;-74
2023/07/11 10:53:56;;;;;;;2.40;1.98;;;25.50;90.80;;;;;;4944368;28;20247;-71
2023/07/11 10:56:26;;;;;;;2.83;2.08;;;25.70;88.30;;;;;;4942479;28;20221;-70
2023/07/11 10:58:53;;;;;;;3.97;1.67;;;26.00;87.20;;;;;;4937332;28;20209;-67
2023/07/11 11:01:47;;;;;;;2.20;2.00;;;25.80;87.70;;;;;;4912627;28;20361;-68
2023/07/11 11:04:35;;;;;;;3.47;1.88;;;26.10;84.90;;;;;;4921872;28;20215;-72
2023/07/11 11:07:00;;;;;;;2.35;2.15;;;26.20;87.70;;;;;;4918571;29;20269;-68
2023/07/11 11:09:36;;;;;;;3.28;2.28;;;26.10;86.50;;;;;;4916770;29;20282;-71
2023/07/11 11:12:22;;;;;;;3.75;2.10;;;26.50;83.90;;;;;;4910392;29;20251;-70
2023/07/11 11:15:12;;;;;;;3.70;2.13;;;26.40;86.50;;;;;;4921321;28;20679;-71
2023/07/11 11:18:01;;;;;;;4.25;1.95;;;26.70;88.80;;;;;;4920231;28;20355;-70
2023/07/11 11:20:41;;;;;;;3.35;2.35;;;27.10;81.60;;;;;;4914908;28;20766;-73
2023/07/11 11:23:36;;;;;;;4.32;2.70;;;27.40;84.30;;;;;;4915344;28;20213;-73
2023/07/11 11:26:23;;;;;;;3.22;1.83;;;27.70;83.90;;;;;;4913196;28;20215;-70
2023/07/11 11:29:01;;;;;;;2.35;2.17;;;27.70;83.30;;;;;;4915564;28;20207;-73
2023/07/11 11:31:29;;;;;;;2.22;2.03;;;27.70;85.10;;;;;;4913760;28;20244;-70
2023/07/11 11:34:23;;;;;;;3.63;2.38;;;28.00;84.10;;;;;;4911078;28;20210;-71
2023/07/11 11:36:52;;;;;;;3.13;2.50;;;28.50;80.10;;;;;;4922586;29;20210;-72
2023/07/11 11:39:24;;;;;;;3.78;2.67;;;28.80;75.90;;;;;;4924702;29;20669;-72
2023/07/11 11:42:05;;;;;;;4.30;2.63;;;28.90;76.40;;;;;;4921222;29;20281;-72
2023/07/11 11:44:58;;;;;;;4.80;2.70;;;28.50;80.40;;;;;;4922104;28;20209;-72
2023/07/11 11:47:25;;;;;;;2.70;2.50;;;28.80;77.40;;;;;;4922381;28;20698;-71
2023/07/11 11:49:52;;;;;;;2.90;2.70;;;29.10;75.80;;;;;;4925552;28;20238;-72
2023/07/11 11:52:19;;;;;;;3.38;2.28;;;29.10;73.30;;;;;;4926383;28;20226;-72
2023/07/11 11:54:48;;;;;;;3.33;2.38;;;29.50;70.60;;;;;;4926061;29;20215;-72
2023/07/11 11:57:24;;;;;;;2.38;2.17;;;29.40;69.60;;;;;;4925376;28;20226;-72
2023/07/11 11:59:50;;;;;;;4.95;2.63;;;29.60;69.30;;;;;;4926522;28;20301;-72
2023/07/11 12:02:32;;;;;;;3.03;2.65;;;30.20;68.60;;;;;;4926698;28;20285;-72
2023/07/11 12:05:08;;;;;;;3.00;2.63;;;29.50;69.00;;;;;;4924733;28;20217;-72
2023/07/11 12:07:37;;;;;;;2.83;2.63;;;29.80;69.20;;;;;;4927389;29;20808;-72
2023/07/11 12:10:08;;;;;;;5.57;2.85;;;30.20;67.50;;;;;;4929790;28;20249;-73
2023/07/11 12:12:34;;;;;;;4.15;2.47;;;29.70;68.10;;;;;;4929762;28;20219;-73
2023/07/11 12:15:19;;;;;;;3.80;2.78;;;30.20;66.40;;;;;;4995681;28;20706;-71
2023/07/11 12:17:46;;;;;;;4.45;1.92;;;30.40;65.80;;;;;;4927610;28;20202;-71
2023/07/11 12:20:19;;;;;;;2.42;2.22;;;30.50;65.50;;;;;;4928627;28;20231;-72
2023/07/11 12:22:45;;;;;;;3.35;2.65;;;30.40;69.10;;;;;;4929322;29;20198;-72
2023/07/11 12:25:24;;;;;;;2.70;2.50;;;30.90;63.50;;;;;;4929773;28;20248;-71
2023/07/11 12:27:53;;;;;;;3.58;2.28;;;30.90;66.40;;;;;;4925131;29;20198;-72
2023/07/11 12:30:30;;;;;;;3.05;2.40;;;31.00;65.40;;;;;;4928956;29;20636;-72
2023/07/11 12:32:57;;;;;;;3.20;2.90;;;31.00;65.00;;;;;;4926134;29;20256;-72
2023/07/11 12:35:33;;;;;;;4.93;2.80;;;31.60;64.20;;;;;;4927748;28;20220;-73
2023/07/11 12:38:02;;;;;;;2.30;2.10;;;31.60;65.30;;;;;;4928808;28;20325;-73
2023/07/11 12:40:48;;;;;;;2.45;2.25;;;32.00;59.10;;;;;;4927098;29;20207;-73
2023/07/11 12:43:31;;;;;;;2.85;2.65;;;32.00;58.30;;;;;;4928918;28;20209;-72
2023/07/11 12:46:03;;;;;;;4.70;2.50;;;32.10;58.60;;;;;;4925712;29;20214;-73
2023/07/11 12:48:32;;;;;;;2.80;2.47;;;32.50;58.10;;;;;;4926473;28;20211;-73
2023/07/11 12:51:04;;;;;;;2.38;2.15;;;32.60;59.00;;;;;;4928773;28;20294;-73
2023/07/11 12:53:34;;;;;;;4.60;2.30;;;32.50;56.90;;;;;;4948432;28;20202;-72
2023/07/11 12:56:00;;;;;;;2.70;2.45;;;32.80;56.30;;;;;;4928799;28;20209;-72
2023/07/11 12:58:28;;;;;;;3.15;2.28;;;32.80;58.80;;;;;;4926838;28;20210;-72
2023/07/11 13:00:56;;;;;;;2.65;2.45;;;32.80;56.90;;;;;;4928303;28;20208;-72
2023/07/11 13:03:31;;;;;;;2.95;2.65;;;32.70;56.90;;;;;;4947779;28;20570;-72
2023/07/11 13:05:59;;;;;;;2.85;2.65;;;33.50;53.90;;;;;;4926798;28;20213;-73
2023/07/11 13:08:34;;;;;;;1.98;1.88;;;33.50;53.80;;;;;;4928947;28;20587;-72
2023/07/11 13:11:03;;;;;;;3.88;2.08;;;33.30;52.20;;;;;;4926259;28;20228;-72
2023/07/11 13:13:31;;;;;;;2.97;2.63;;;33.10;54.30;;;;;;4928062;28;20202;-72
2023/07/11 13:16:01;;;;;;;3.35;2.47;;;33.10;52.10;;;;;;4927980;28;20206;-73
2023/07/11 13:18:30;;;;;;;2.60;2.40;;;32.90;51.50;;;;;;4927318;28;20214;-73